createdAt,value
2018-05-01T14:33:38.934Z,1.23
2018-05-01T14:37:04.559Z,0.70
2018-05-01T14:39:34.379Z,0.85
2018-05-01T14:42:04.086Z,0.72
2018-05-01T14:44:33.927Z,1.00
2018-05-01T14:47:04.401Z,0.75
2018-05-01T14:49:34.082Z,0.82
2018-05-01T14:52:04.507Z,0.75
2018-05-01T14:54:35.508Z,0.70
2018-05-01T14:57:05.315Z,0.70
2018-05-01T14:59:34.989Z,1.00
2018-05-01T15:02:04.989Z,0.55
2018-05-01T15:04:35.775Z,1.07
2018-05-01T15:07:06.489Z,0.70
2018-05-01T15:09:36.146Z,0.70
2018-05-01T15:12:05.815Z,0.62
2018-05-01T15:14:36.448Z,0.78
2018-05-01T15:17:06.184Z,0.70
2018-05-01T15:19:35.965Z,0.80
2018-05-01T15:22:06.245Z,0.93
2018-05-01T15:24:36.505Z,0.93
2018-05-01T15:27:06.194Z,0.80
2018-05-01T15:29:35.870Z,0.80
2018-05-01T15:32:06.380Z,0.90
2018-05-01T15:34:37.148Z,0.50
2018-05-01T15:37:06.817Z,0.70
2018-05-01T15:39:36.506Z,0.70
2018-05-01T15:42:06.581Z,0.62
2018-05-01T15:48:04.789Z,0.90
2018-05-01T15:50:34.807Z,0.78
2018-05-01T15:53:05.375Z,0.72
2018-05-01T15:55:35.046Z,0.72
2018-05-01T15:58:04.737Z,0.78
2018-05-01T16:04:08.371Z,0.70
2018-05-01T16:06:38.016Z,0.82
2018-05-01T16:09:55.057Z,0.75
2018-05-01T16:12:27.223Z,1.05
2018-05-01T16:14:57.007Z,0.98
2018-05-01T16:17:29.091Z,0.80
2018-05-01T16:19:58.897Z,0.72
2018-05-01T16:22:29.735Z,0.90
2018-05-01T16:25:00.288Z,0.80
2018-05-01T16:27:31.541Z,1.00
2018-05-01T16:30:28.856Z,1.05
2018-05-01T16:33:01.395Z,1.00
2018-05-01T16:35:31.157Z,0.70
2018-05-01T16:38:01.654Z,0.85
2018-05-01T16:40:33.069Z,0.98
2018-05-01T16:43:04.229Z,0.65
2018-05-01T16:45:35.463Z,0.70
2018-05-01T16:48:05.333Z,0.90
2018-05-01T16:50:37.809Z,0.98
2018-05-01T16:53:07.817Z,0.80
2018-05-01T16:55:37.495Z,1.40
2018-05-01T16:58:07.490Z,0.75
2018-05-01T17:00:37.746Z,0.80
2018-05-01T17:03:08.687Z,0.65
2018-05-01T17:05:39.297Z,0.80
2018-05-01T17:08:09.066Z,0.90
2018-05-01T17:10:38.853Z,0.82
2018-05-01T17:13:08.531Z,1.00
2018-05-01T17:15:39.360Z,0.60
2018-05-01T17:18:09.057Z,0.70
2018-05-01T17:20:38.767Z,0.93
2018-05-01T17:23:08.797Z,0.70
2018-05-01T17:25:39.281Z,0.70
2018-05-01T17:28:09.020Z,0.90
2018-05-01T17:30:38.854Z,0.70
2018-05-01T17:33:10.653Z,0.93
2018-05-01T17:35:40.421Z,0.80
2018-05-01T17:38:10.718Z,0.70
2018-05-01T17:40:41.728Z,0.70
2018-05-01T17:43:11.914Z,0.68
2018-05-01T17:45:41.962Z,1.20
2018-05-01T17:48:11.620Z,0.80
2018-05-01T17:50:41.616Z,1.05
2018-05-01T17:53:11.267Z,0.60
2018-05-01T17:55:40.968Z,0.75
2018-05-01T17:58:10.644Z,1.10
2018-05-01T18:00:40.309Z,1.07
2018-05-01T18:03:09.961Z,0.90
2018-05-01T18:05:39.664Z,0.88
2018-05-01T18:08:09.402Z,0.75
2018-05-01T18:10:39.217Z,0.80
2018-05-01T18:13:09.394Z,0.65
2018-05-01T18:15:39.139Z,0.68
2018-05-01T18:18:08.833Z,1.12
2018-05-01T18:20:38.866Z,0.68
2018-05-01T18:23:08.881Z,1.00
2018-05-01T18:25:38.612Z,2.10
2018-05-01T18:28:08.615Z,1.05
2018-05-01T18:30:38.461Z,1.40
2018-05-01T18:33:08.289Z,1.90
2018-05-01T18:35:37.952Z,1.75
2018-05-01T18:38:07.646Z,1.55
2018-05-01T18:40:37.611Z,1.32
2018-05-01T18:43:07.284Z,1.47
2018-05-01T18:45:36.989Z,1.55
2018-05-01T18:48:06.647Z,1.35
2018-05-01T18:50:40.392Z,1.10
2018-05-01T18:53:06.224Z,1.50
2018-05-01T18:55:36.271Z,1.35
2018-05-01T18:58:05.984Z,1.30
2018-05-01T19:00:36.038Z,1.52
2018-05-01T19:03:05.733Z,1.40
2018-05-01T19:05:35.533Z,1.60
2018-05-01T19:08:05.218Z,1.52
2018-05-01T19:10:35.221Z,1.70
2018-05-01T19:13:04.924Z,1.55
2018-05-01T19:15:34.616Z,1.40
2018-05-01T19:18:04.465Z,1.65
2018-05-01T19:20:34.538Z,1.40
2018-05-01T19:23:04.257Z,1.47
2018-05-01T19:25:33.994Z,1.30
2018-05-01T19:28:04.349Z,1.30
2018-05-01T19:30:34.087Z,1.35
2018-05-01T19:33:04.214Z,1.30
2018-05-01T19:35:36.010Z,1.20
2018-05-01T19:38:06.028Z,1.42
2018-05-01T19:40:36.238Z,1.57
2018-05-01T19:43:05.906Z,1.30
2018-05-01T19:45:35.629Z,1.50
2018-05-01T19:48:05.663Z,1.30
2018-05-01T19:50:35.340Z,1.70
2018-05-01T19:53:05.003Z,1.42
2018-05-01T19:55:35.011Z,1.45
2018-05-01T19:58:05.014Z,1.35
2018-05-01T20:00:34.683Z,1.10
2018-05-01T20:03:04.729Z,1.50
2018-05-01T20:05:34.553Z,1.30
2018-05-01T20:08:04.202Z,1.40
2018-05-01T20:10:33.885Z,1.35
2018-05-01T20:13:04.578Z,1.50
2018-05-01T20:15:34.315Z,1.30
2018-05-01T20:18:04.345Z,1.90
2018-05-01T20:20:34.542Z,2.15
2018-05-01T20:23:04.225Z,1.80
2018-05-01T20:25:35.553Z,1.65
2018-05-01T20:28:05.223Z,1.70
2018-05-01T20:30:35.480Z,2.60
2018-05-01T20:33:05.196Z,1.80
2018-05-01T20:35:34.874Z,1.62
2018-05-01T20:38:04.642Z,2.25
2018-05-01T20:40:34.414Z,1.80
2018-05-01T20:43:04.093Z,2.33
2018-05-01T20:45:34.114Z,2.20
2018-05-01T20:48:04.144Z,1.80
2018-05-01T20:50:33.813Z,2.20
2018-05-01T20:53:03.472Z,1.70
2018-05-01T20:55:33.559Z,2.10
2018-05-01T20:58:03.558Z,2.17
2018-05-01T21:00:33.286Z,2.60
2018-05-01T21:03:01.796Z,2.27
2018-05-01T21:05:31.459Z,3.20
2018-05-01T21:08:01.107Z,3.25
2018-05-01T21:10:31.108Z,2.50
2018-05-01T21:13:00.810Z,2.70
2018-05-01T21:15:30.461Z,2.45
2018-05-01T21:18:00.112Z,2.83
2018-05-01T21:20:29.813Z,2.77
2018-05-01T21:22:59.454Z,2.75
2018-05-01T21:25:29.904Z,2.83
2018-05-01T21:27:59.548Z,2.95
2018-05-01T21:30:29.229Z,3.30
2018-05-01T21:32:58.887Z,3.08
2018-05-01T21:35:28.601Z,3.58
2018-05-01T21:37:58.289Z,3.50
2018-05-01T21:40:29.045Z,3.98
2018-05-01T21:42:58.733Z,4.10
2018-05-01T21:45:28.957Z,4.12
2018-05-01T21:47:58.968Z,3.77
2018-05-01T21:50:28.683Z,3.60
2018-05-01T21:52:58.371Z,3.85
2018-05-01T21:55:28.019Z,3.58
2018-05-01T21:57:57.685Z,3.52
2018-05-01T22:00:27.352Z,3.40
2018-05-01T22:02:57.022Z,3.70
2018-05-01T22:05:27.717Z,4.97
2018-05-01T22:07:57.361Z,4.22
2018-05-01T22:10:27.008Z,3.90
2018-05-01T22:12:56.649Z,4.00
2018-05-01T22:15:26.663Z,4.15
2018-05-01T22:17:56.306Z,3.80
2018-05-01T22:20:25.958Z,3.90
2018-05-01T22:22:55.612Z,4.35
2018-05-01T22:25:25.270Z,4.10
2018-05-01T22:27:54.937Z,4.30
2018-05-01T22:30:24.609Z,3.60
2018-05-01T22:32:54.271Z,4.15
2018-05-01T22:35:23.942Z,3.83
2018-05-01T22:37:54.027Z,3.80
2018-05-01T22:40:23.711Z,3.47
2018-05-01T22:42:53.366Z,3.20
2018-05-01T22:45:23.046Z,2.95
2018-05-01T22:47:52.720Z,3.58
2018-05-01T22:50:22.360Z,3.77
2018-05-01T22:52:52.004Z,3.10
2018-05-01T22:55:21.718Z,3.12
2018-05-01T22:57:51.373Z,3.98
2018-05-01T23:00:21.517Z,3.10
2018-05-01T23:02:51.177Z,2.80
2018-05-01T23:05:20.897Z,3.40
2018-05-01T23:07:50.912Z,2.77
2018-05-01T23:10:20.594Z,3.77
2018-05-01T23:12:50.242Z,3.52
2018-05-01T23:15:19.900Z,3.58
2018-05-01T23:17:49.559Z,4.00
2018-05-01T23:20:19.681Z,3.30
2018-05-01T23:22:49.344Z,4.05
2018-05-01T23:25:18.996Z,4.20
2018-05-01T23:27:48.661Z,3.65
2018-05-01T23:30:18.317Z,3.33
2018-05-01T23:32:47.979Z,3.30
2018-05-01T23:35:17.984Z,3.52
2018-05-01T23:37:47.642Z,4.03
2018-05-01T23:40:17.330Z,3.62
2018-05-01T23:42:47.064Z,3.50
2018-05-01T23:45:16.893Z,3.35
2018-05-01T23:47:46.588Z,3.72
2018-05-01T23:50:16.287Z,3.30
2018-05-01T23:52:45.940Z,3.52
2018-05-01T23:55:15.612Z,3.33
2018-05-01T23:57:45.636Z,3.30
